createdAt,value
2023-11-18T00:02:16.525Z,98083.34
2023-11-18T00:04:46.103Z,98093.38
2023-11-18T00:07:15.601Z,98075.47
2023-11-18T00:09:47.113Z,98090.31
2023-11-18T00:12:17.474Z,98093.22
2023-11-18T00:14:47.092Z,98085.13
2023-11-18T00:17:17.216Z,98083.34
2023-11-18T00:19:46.794Z,98102.13
2023-11-18T00:22:16.218Z,98098.72
2023-11-18T00:24:45.544Z,98089.88
2023-11-18T00:27:16.293Z,98108.81
2023-11-18T00:29:45.858Z,98105.53
2023-11-18T00:32:15.494Z,98117.66
2023-11-18T00:34:45.886Z,98121.22
2023-11-18T00:37:15.477Z,98109.78
2023-11-18T00:39:44.895Z,98117.34
2023-11-18T00:42:15.084Z,98122.41
2023-11-18T00:44:45.312Z,98105.78
2023-11-18T00:47:15.253Z,98128.13
2023-11-18T00:49:44.921Z,98123.16
2023-11-18T00:52:14.388Z,98120.28
2023-11-18T00:54:43.814Z,98115.97
2023-11-18T00:57:13.198Z,98117.50
2023-11-18T00:59:44.829Z,98112.81
2023-11-18T01:02:14.754Z,98119.25
2023-11-18T01:04:47.113Z,98120.34
2023-11-18T01:07:17.081Z,98130.06
2023-11-18T01:09:46.748Z,98120.09
2023-11-18T01:12:16.155Z,98123.97
2023-11-18T01:14:45.651Z,98130.44
2023-11-18T01:17:15.149Z,98128.13
2023-11-18T01:19:45.309Z,98133.78
2023-11-18T01:22:15.038Z,98126.19
2023-11-18T01:24:44.576Z,98121.81
2023-11-18T01:27:14.368Z,98128.94
2023-11-18T01:29:44.667Z,98117.28
2023-11-18T01:32:15.483Z,98112.91
2023-11-18T01:34:51.357Z,98117.97
2023-11-18T01:37:23.232Z,98116.84
2023-11-18T01:39:53.480Z,98117.97
2023-11-18T01:42:22.972Z,98097.19
2023-11-18T01:44:56.288Z,98116.72
2023-11-18T01:47:25.886Z,98120.06
2023-11-18T01:49:55.645Z,98106.81
2023-11-18T01:52:26.219Z,98122.03
2023-11-18T01:54:57.239Z,98118.47
2023-11-18T01:57:28.266Z,98110.50
2023-11-18T01:59:59.686Z,98113.94
2023-11-18T02:02:29.261Z,98107.94
2023-11-18T02:04:58.731Z,98117.88
2023-11-18T02:07:30.414Z,98113.22
2023-11-18T02:09:59.890Z,98122.31
2023-11-18T02:12:52.160Z,98125.72
2023-11-18T02:15:26.331Z,98126.97
2023-11-18T02:18:00.153Z,98111.84
2023-11-18T02:20:31.788Z,98115.88
2023-11-18T02:23:03.616Z,98112.34
2023-11-18T02:25:35.814Z,98116.25
2023-11-18T02:28:06.046Z,98123.72
2023-11-18T02:30:35.558Z,98109.69
2023-11-18T02:33:45.638Z,98132.63
2023-11-18T02:36:37.318Z,98131.81
2023-11-18T02:39:18.577Z,98127.44
2023-11-18T02:41:53.527Z,98120.53
2023-11-18T02:44:26.701Z,98110.53
2023-11-18T02:46:56.451Z,98130.41
2023-11-18T02:49:26.055Z,98130.06
2023-11-18T02:51:56.456Z,98132.50
2023-11-18T02:54:27.419Z,98134.09
2023-11-18T02:56:58.566Z,98130.06
2023-11-18T02:59:31.407Z,98132.16
2023-11-18T03:02:02.700Z,98126.19
2023-11-18T03:04:32.228Z,98141.34
2023-11-18T03:07:01.956Z,98149.75
2023-11-18T03:09:31.538Z,98138.75
2023-11-18T03:12:01.622Z,98147.81
2023-11-18T03:14:31.152Z,98148.94
2023-11-18T03:17:01.161Z,98146.81
2023-11-18T03:19:30.649Z,98142.75
2023-11-18T03:22:00.071Z,98157.78
2023-11-18T03:24:30.091Z,98156.84
2023-11-18T03:26:59.559Z,98160.53
2023-11-18T03:29:30.434Z,98161.69
2023-11-18T03:32:01.774Z,98176.38
2023-11-18T03:34:32.363Z,98132.63
2023-11-18T03:37:03.988Z,98170.72
2023-11-18T03:39:35.390Z,98153.09
2023-11-18T03:42:08.337Z,98167.00
2023-11-18T03:44:38.826Z,98166.69
2023-11-18T03:47:13.451Z,98173.28
2023-11-18T03:49:47.188Z,98172.94
2023-11-18T03:52:18.206Z,98176.16
2023-11-18T03:54:50.058Z,98178.88
2023-11-18T03:57:19.477Z,98192.16
2023-11-18T03:59:49.065Z,98179.38
2023-11-18T04:02:28.468Z,98180.03
2023-11-18T04:04:58.425Z,98185.69
2023-11-18T04:07:29.865Z,98186.50
2023-11-18T04:10:03.339Z,98181.03
2023-11-18T04:12:37.090Z,98188.75
2023-11-18T04:15:14.670Z,98192.84
2023-11-18T04:17:45.428Z,98196.22
2023-11-18T04:20:17.468Z,98175.59
2023-11-18T04:22:47.229Z,98191.09
2023-11-18T04:25:16.710Z,98187.84
2023-11-18T04:27:47.245Z,98189.91
2023-11-18T04:30:18.575Z,98183.94
2023-11-18T04:32:48.111Z,98204.81
2023-11-18T04:35:18.449Z,98177.34
2023-11-18T04:37:47.860Z,98203.69
2023-11-18T04:40:17.673Z,98185.59
2023-11-18T04:42:48.121Z,98197.72
2023-11-18T04:45:17.882Z,98202.88
2023-11-18T04:47:47.759Z,98208.88
2023-11-18T04:50:17.372Z,98208.06
2023-11-18T04:52:46.775Z,98210.31
2023-11-18T04:55:16.196Z,98203.41
2023-11-18T04:57:45.625Z,98217.59
2023-11-18T05:00:18.407Z,98219.41
2023-11-18T05:02:49.545Z,98232.19
2023-11-18T05:05:19.560Z,98224.13
2023-11-18T05:07:49.301Z,98207.00
2023-11-18T05:10:20.208Z,98219.56
2023-11-18T05:12:57.102Z,98208.59
2023-11-18T05:15:26.695Z,98216.19
2023-11-18T05:17:56.529Z,98235.09
2023-11-18T05:20:28.737Z,98236.06
2023-11-18T05:22:58.260Z,98220.38
2023-11-18T05:25:28.314Z,98235.25
2023-11-18T05:27:57.654Z,98249.19
2023-11-18T05:30:27.240Z,98251.28
2023-11-18T05:32:57.332Z,98245.44
2023-11-18T05:35:29.577Z,98247.88
2023-11-18T05:37:59.016Z,98244.63
2023-11-18T05:40:30.262Z,98237.03
2023-11-18T05:43:00.084Z,98230.59
2023-11-18T05:45:29.875Z,98235.09
2023-11-18T05:47:59.677Z,98253.03
2023-11-18T05:50:29.135Z,98249.97
2023-11-18T05:52:58.670Z,98254.50
2023-11-18T05:55:28.094Z,98254.16
2023-11-18T05:57:58.323Z,98262.41
2023-11-18T06:03:03.782Z,98269.34
2023-11-18T06:05:36.350Z,98265.47
2023-11-18T06:08:06.551Z,98267.09
2023-11-18T06:10:36.057Z,98273.25
2023-11-18T06:13:05.651Z,98256.56
2023-11-18T06:15:36.972Z,98268.06
2023-11-18T06:18:06.934Z,98273.22
2023-11-18T06:21:34.486Z,98242.50
2023-11-18T06:24:07.028Z,98254.47
2023-11-18T06:26:37.403Z,98281.25
2023-11-18T06:29:07.814Z,98284.63
2023-11-18T06:31:37.212Z,98284.75
2023-11-18T06:34:06.721Z,98282.47
2023-11-18T06:36:37.100Z,98285.22
2023-11-18T06:39:10.133Z,98291.03
2023-11-18T06:41:49.385Z,98284.34
2023-11-18T06:44:24.953Z,98291.66
2023-11-18T06:46:54.728Z,98288.09
2023-11-18T06:49:26.731Z,98288.50
2023-11-18T06:51:56.228Z,98281.16
2023-11-18T06:54:27.849Z,98278.00
2023-11-18T06:56:58.076Z,98283.78
2023-11-18T06:59:27.630Z,98297.66
2023-11-18T07:01:57.041Z,98296.97
2023-11-18T07:04:26.939Z,98300.81
2023-11-18T07:06:56.332Z,98307.28
2023-11-18T07:09:27.296Z,98315.34
2023-11-18T07:11:58.063Z,98304.34
2023-11-18T07:14:31.446Z,98313.50
2023-11-18T07:17:01.164Z,98304.84
2023-11-18T07:19:30.679Z,98292.56
2023-11-18T07:22:00.359Z,98303.78
2023-11-18T07:24:31.371Z,98299.47
2023-11-18T07:27:00.968Z,98308.09
2023-11-18T07:29:30.520Z,98307.47
2023-11-18T07:32:00.583Z,98301.00
2023-11-18T07:34:30.036Z,98302.44
2023-11-18T07:37:00.178Z,98299.94
2023-11-18T07:39:45.663Z,98302.72
2023-11-18T07:42:19.154Z,98311.22
2023-11-18T07:44:49.199Z,98290.31
2023-11-18T07:47:20.899Z,98292.09
2023-11-18T07:49:51.166Z,98300.63
2023-11-18T07:52:21.609Z,98294.31
2023-11-18T07:54:53.544Z,98298.72
2023-11-18T07:57:25.217Z,98297.09
2023-11-18T07:59:55.382Z,98297.72
2023-11-18T08:02:24.828Z,98289.47
2023-11-18T08:04:54.241Z,98291.44
2023-11-18T08:07:24.050Z,98303.28
2023-11-18T08:09:54.038Z,98292.16
2023-11-18T08:12:23.429Z,98277.75
2023-11-18T08:14:52.841Z,98288.19
2023-11-18T08:17:22.294Z,98293.19
2023-11-18T08:19:52.914Z,98298.31
2023-11-18T08:22:24.362Z,98299.75
2023-11-18T08:24:54.342Z,98289.31
2023-11-18T08:27:24.621Z,98280.78
2023-11-18T08:29:54.623Z,98292.13
2023-11-18T08:32:24.755Z,98287.38
2023-11-18T08:34:54.284Z,98289.66
2023-11-18T08:37:23.843Z,98307.53
2023-11-18T08:39:53.286Z,98304.75
2023-11-18T08:42:23.292Z,98303.00
2023-11-18T08:44:52.731Z,98300.44
2023-11-18T08:47:22.483Z,98300.25
2023-11-18T08:49:51.975Z,98301.03
2023-11-18T08:52:21.572Z,98310.28
2023-11-18T08:55:09.654Z,98298.59
2023-11-18T08:57:53.845Z,98299.75
2023-11-18T09:00:41.715Z,98307.94
2023-11-18T09:03:18.729Z,98319.31
2023-11-18T09:05:58.058Z,98324.16
2023-11-18T09:08:43.897Z,98318.84
2023-11-18T09:11:16.428Z,98314.41
2023-11-18T09:13:55.021Z,98315.78
2023-11-18T09:16:28.418Z,98313.94
2023-11-18T09:19:00.692Z,98326.53
2023-11-18T09:21:31.290Z,98329.38
2023-11-18T09:24:00.848Z,98313.44
2023-11-18T09:26:31.746Z,98309.19
2023-11-18T09:29:03.104Z,98317.81
2023-11-18T09:31:34.851Z,98323.16
2023-11-18T09:34:07.869Z,98335.97
2023-11-18T09:36:37.479Z,98338.34
2023-11-18T09:39:08.608Z,98355.31
2023-11-18T09:41:38.151Z,98346.19
2023-11-18T09:44:07.921Z,98351.94
2023-11-18T09:46:47.270Z,98344.63
2023-11-18T09:49:39.963Z,98355.03
2023-11-18T09:52:18.938Z,98350.41
2023-11-18T09:55:15.970Z,98346.78
2023-11-18T09:57:58.875Z,98350.25
2023-11-18T10:00:34.239Z,98333.75
2023-11-18T10:03:04.522Z,98329.22
2023-11-18T10:05:35.109Z,98315.41
2023-11-18T10:08:07.149Z,98332.66
2023-11-18T10:10:38.354Z,98315.41
2023-11-18T10:13:22.992Z,98338.28
2023-11-18T10:15:53.648Z,98341.63
2023-11-18T10:18:24.906Z,98331.38
2023-11-18T10:20:58.228Z,98341.91
2023-11-18T10:23:29.120Z,98342.47
2023-11-18T10:26:01.692Z,98367.22
2023-11-18T10:28:37.896Z,98355.91
2023-11-18T10:31:10.574Z,98359.63
2023-11-18T10:33:44.917Z,98368.69
2023-11-18T10:36:24.567Z,98349.50
2023-11-18T10:38:57.428Z,98351.53
2023-11-18T10:41:27.945Z,98365.50
2023-11-18T10:44:09.031Z,98365.19
2023-11-18T10:46:41.282Z,98368.53
2023-11-18T10:49:11.425Z,98362.88
2023-11-18T10:51:42.265Z,98370.97
2023-11-18T10:54:18.641Z,98376.63
2023-11-18T10:56:58.119Z,98394.66
2023-11-18T10:59:29.975Z,98396.38
2023-11-18T11:02:02.911Z,98398.47
2023-11-18T11:04:47.491Z,98407.59
2023-11-18T11:07:21.303Z,98402.09
2023-11-18T11:09:57.808Z,98414.59
2023-11-18T11:12:53.061Z,98404.09
2023-11-18T11:15:33.932Z,98426.44
2023-11-18T11:18:16.799Z,98416.44
2023-11-18T11:21:33.507Z,98421.22
2023-11-18T11:24:16.699Z,98427.69
2023-11-18T11:27:11.963Z,98429.97
2023-11-18T11:30:00.638Z,98439.09
2023-11-18T11:32:46.874Z,98444.25
2023-11-18T11:35:58.827Z,98440.47
2023-11-18T11:38:38.124Z,98456.28
2023-11-18T11:41:11.145Z,98467.75
2023-11-18T11:43:41.912Z,98457.41
2023-11-18T11:46:13.032Z,98457.47
2023-11-18T11:48:44.633Z,98455.06
2023-11-18T11:51:31.370Z,98435.97
2023-11-18T11:54:22.168Z,98450.50
2023-11-18T11:57:00.657Z,98481.22
2023-11-18T11:59:57.689Z,98485.34
2023-11-18T12:02:33.639Z,98483.66
2023-11-18T12:05:08.301Z,98502.81
2023-11-18T12:07:42.039Z,98499.84
2023-11-18T12:10:16.533Z,98501.13
2023-11-18T12:12:46.292Z,98493.03
2023-11-18T12:18:28.167Z,98487.56
2023-11-18T12:21:04.390Z,98518.72
2023-11-18T12:23:36.123Z,98508.38
2023-11-18T12:26:45.085Z,98498.31
2023-11-18T12:29:43.367Z,98511.78
2023-11-18T12:32:18.001Z,98507.09
2023-11-18T12:34:55.028Z,98502.22
2023-11-18T12:38:14.034Z,98486.53
2023-11-18T12:40:58.363Z,98469.69
2023-11-18T12:44:07.815Z,98502.22
2023-11-18T12:47:09.884Z,98523.66
2023-11-18T12:49:43.686Z,98504.56
2023-11-18T12:52:15.997Z,98521.06
2023-11-18T12:54:52.033Z,98513.19
2023-11-18T12:57:24.262Z,98523.81
2023-11-18T12:59:54.445Z,98523.63
2023-11-18T13:02:24.955Z,98524.88
2023-11-18T13:04:54.776Z,98529.56
2023-11-18T13:07:26.303Z,98533.78
2023-11-18T13:09:55.803Z,98518.09
2023-11-18T13:12:25.387Z,98542.03
2023-11-18T13:14:54.911Z,98523.81
2023-11-18T13:17:24.419Z,98520.59
2023-11-18T13:19:55.510Z,98533.06
2023-11-18T13:22:35.626Z,98531.88
2023-11-18T13:25:15.576Z,98526.75
2023-11-18T13:27:45.698Z,98536.44
2023-11-18T13:30:18.571Z,98542.53
2023-11-18T13:32:50.853Z,98541.53
2023-11-18T13:35:24.984Z,98540.97
2023-11-18T13:37:55.373Z,98544.66
2023-11-18T13:40:25.256Z,98539.25
2023-11-18T13:43:09.835Z,98542.03
2023-11-18T13:45:40.794Z,98553.78
2023-11-18T13:48:14.991Z,98554.53
2023-11-18T13:50:46.194Z,98557.97
2023-11-18T13:53:16.869Z,98562.19
2023-11-18T13:55:49.997Z,98560.88
2023-11-18T13:58:20.650Z,98557.13
2023-11-18T14:00:52.478Z,98571.53
2023-11-18T14:03:24.534Z,98572.81
2023-11-18T14:05:58.517Z,98576.13
2023-11-18T14:08:28.690Z,98582.94
2023-11-18T14:11:03.099Z,98586.53
2023-11-18T14:13:36.206Z,98590.13
2023-11-18T14:16:07.249Z,98581.31
2023-11-18T14:18:37.566Z,98589.09
2023-11-18T14:21:07.436Z,98593.59
2023-11-18T14:23:38.712Z,98598.50
2023-11-18T14:26:09.152Z,98598.69
2023-11-18T14:28:39.122Z,98594.28
2023-11-18T14:31:11.033Z,98576.50
2023-11-18T14:33:40.661Z,98611.81
2023-11-18T14:36:10.749Z,98593.47
2023-11-18T14:38:40.267Z,98585.34
2023-11-18T14:41:09.872Z,98593.47
2023-11-18T14:43:39.445Z,98583.75
2023-11-18T14:46:10.282Z,98596.94
2023-11-18T14:48:43.689Z,98586.16
2023-11-18T14:51:14.875Z,98612.09
2023-11-18T14:53:45.510Z,98593.16
2023-11-18T14:56:19.448Z,98593.19
2023-11-18T14:58:53.857Z,98611.38
2023-11-18T15:01:27.322Z,98611.41
2023-11-18T15:04:07.066Z,98615.28
2023-11-18T15:06:39.936Z,98628.59
2023-11-18T15:09:12.332Z,98622.44
2023-11-18T15:11:55.624Z,98605.63
2023-11-18T15:14:27.226Z,98622.00
2023-11-18T15:16:56.924Z,98600.22
2023-11-18T15:19:28.589Z,98626.22
2023-11-18T15:21:58.030Z,98621.16
2023-11-18T15:24:27.400Z,98620.81
2023-11-18T15:26:56.973Z,98618.88
2023-11-18T15:29:32.736Z,98628.94
2023-11-18T15:32:02.293Z,98639.78
2023-11-18T15:34:32.998Z,98658.13
2023-11-18T15:37:02.895Z,98652.78
2023-11-18T15:39:32.405Z,98663.63
2023-11-18T15:42:07.001Z,98650.97
2023-11-18T15:44:36.550Z,98646.75
2023-11-18T15:47:07.084Z,98647.25
2023-11-18T15:49:36.819Z,98649.53
2023-11-18T15:52:08.569Z,98665.09
2023-11-18T15:54:38.649Z,98663.13
2023-11-18T15:57:08.192Z,98662.16
2023-11-18T15:59:39.857Z,98655.50
2023-11-18T16:02:10.556Z,98664.56
2023-11-18T16:04:41.317Z,98657.44
2023-11-18T16:07:10.885Z,98659.88
2023-11-18T16:09:40.280Z,98658.53
2023-11-18T16:12:09.731Z,98667.63
2023-11-18T16:15:07.222Z,98655.47
2023-11-18T16:17:36.933Z,98656.78
2023-11-18T16:20:08.225Z,98669.91
2023-11-18T16:22:37.974Z,98677.06
2023-11-18T16:25:08.149Z,98666.34
2023-11-18T16:27:38.310Z,98676.75
2023-11-18T16:30:08.941Z,98680.81
2023-11-18T16:32:38.866Z,98678.69
2023-11-18T16:35:13.196Z,98678.06
2023-11-18T16:37:44.213Z,98672.06
2023-11-18T16:40:16.089Z,98685.47
2023-11-18T16:42:57.250Z,98682.56
2023-11-18T16:45:28.165Z,98672.69
2023-11-18T16:47:58.342Z,98673.31
2023-11-18T16:50:28.645Z,98688.88
2023-11-18T16:53:00.718Z,98687.22
2023-11-18T16:55:32.820Z,98702.44
2023-11-18T16:58:04.054Z,98695.28
2023-11-18T17:00:34.333Z,98687.66
2023-11-18T17:03:05.614Z,98681.50
2023-11-18T17:05:35.994Z,98681.47
2023-11-18T17:08:07.029Z,98680.97
2023-11-18T17:10:40.267Z,98690.50
2023-11-18T17:13:10.181Z,98691.00
2023-11-18T17:15:39.757Z,98703.75
2023-11-18T17:18:09.477Z,98718.28
2023-11-18T17:20:39.010Z,98713.56
2023-11-18T17:23:09.298Z,98717.47
2023-11-18T17:25:39.062Z,98711.56
2023-11-18T17:28:10.062Z,98740.50
2023-11-18T17:30:39.606Z,98743.28
2023-11-18T17:33:09.274Z,98750.06
2023-11-18T17:35:39.319Z,98752.66
2023-11-18T17:38:09.892Z,98752.66
2023-11-18T17:40:39.573Z,98745.69
2023-11-18T17:43:09.047Z,98755.22
2023-11-18T17:45:38.680Z,98757.19
2023-11-18T17:48:10.402Z,98760.03
2023-11-18T17:50:40.997Z,98739.72
2023-11-18T17:53:10.463Z,98771.41
2023-11-18T17:55:39.827Z,98757.00
2023-11-18T17:58:11.821Z,98760.63
2023-11-18T18:00:41.432Z,98760.94
2023-11-18T18:03:11.539Z,98756.38
2023-11-18T18:05:41.072Z,98752.09
2023-11-18T18:08:13.255Z,98750.84
2023-11-18T18:10:43.647Z,98771.72
2023-11-18T18:13:12.987Z,98764.66
2023-11-18T18:15:43.497Z,98760.78
2023-11-18T18:18:13.418Z,98757.16
2023-11-18T18:20:49.170Z,98745.63
2023-11-18T18:23:18.908Z,98741.19
2023-11-18T18:25:48.478Z,98734.38
2023-11-18T18:28:17.963Z,98763.06
2023-11-18T18:30:47.520Z,98771.25
2023-11-18T18:33:17.751Z,98753.53
2023-11-18T18:35:47.810Z,98767.34
2023-11-18T18:38:17.847Z,98769.53
2023-11-18T18:40:48.161Z,98761.56
2023-11-18T18:43:18.908Z,98771.53
2023-11-18T18:45:49.674Z,98779.97
2023-11-18T18:48:19.476Z,98784.31
2023-11-18T18:50:49.645Z,98767.63
2023-11-18T18:53:19.388Z,98767.91
2023-11-18T18:55:48.985Z,98766.31
2023-11-18T18:58:22.495Z,98765.59
2023-11-18T19:00:54.047Z,98780.56
2023-11-18T19:03:24.730Z,98777.88
2023-11-18T19:05:56.590Z,98767.81
2023-11-18T19:08:27.434Z,98765.69
2023-11-18T19:10:58.944Z,98767.09
2023-11-18T19:13:28.501Z,98762.19
2023-11-18T19:15:59.443Z,98756.50
2023-11-18T19:18:29.912Z,98759.75
2023-11-18T19:20:59.468Z,98765.44
2023-11-18T19:23:29.397Z,98762.88
2023-11-18T19:25:59.068Z,98736.09
2023-11-18T19:28:29.178Z,98729.84
2023-11-18T19:31:00.564Z,98742.13
2023-11-18T19:33:30.445Z,98761.16
2023-11-18T19:35:59.959Z,98770.13
2023-11-18T19:38:30.076Z,98777.75
2023-11-18T19:41:00.214Z,98776.13
2023-11-18T19:43:30.492Z,98769.63
2023-11-18T19:46:00.336Z,98769.22
2023-11-18T19:48:33.275Z,98759.91
2023-11-18T19:51:04.285Z,98760.84
2023-11-18T19:53:33.918Z,98750.56
2023-11-18T19:56:05.601Z,98762.78
2023-11-18T19:58:35.419Z,98761.81
2023-11-18T20:01:05.474Z,98744.34
2023-11-18T20:03:35.739Z,98739.47
2023-11-18T20:06:05.505Z,98734.97
2023-11-18T20:08:35.814Z,98740.25
2023-11-18T20:11:11.594Z,98739.84
2023-11-18T20:13:41.677Z,98737.69
2023-11-18T20:16:13.708Z,98725.91
2023-11-18T20:18:44.180Z,98738.78
2023-11-18T20:21:13.692Z,98734.75
2023-11-18T20:23:43.713Z,98726.59
2023-11-18T20:26:15.724Z,98736.50
2023-11-18T20:28:50.309Z,98722.00
2023-11-18T20:31:27.760Z,98680.66
2023-11-18T20:33:57.402Z,98703.97
2023-11-18T20:36:27.998Z,98758.91
2023-11-18T20:38:58.086Z,98764.31
2023-11-18T20:41:30.333Z,98732.19
2023-11-18T20:44:01.281Z,98750.63
2023-11-18T20:46:31.692Z,98760.28
2023-11-18T20:49:01.902Z,98749.84
2023-11-18T20:51:33.197Z,98751.59
2023-11-18T20:54:08.484Z,98748.47
2023-11-18T20:56:39.560Z,98734.09
2023-11-18T20:59:35.493Z,98742.09
2023-11-18T21:02:06.486Z,98734.09
2023-11-18T21:04:36.843Z,98732.31
2023-11-18T21:07:06.292Z,98736.28
2023-11-18T21:09:35.783Z,98743.88
2023-11-18T21:12:17.820Z,98737.50
2023-11-18T21:14:50.004Z,98746.69
2023-11-18T21:17:21.373Z,98770.28
2023-11-18T21:19:50.939Z,98769.06
2023-11-18T21:22:21.686Z,98751.69
2023-11-18T21:24:52.279Z,98756.47
2023-11-18T21:27:21.843Z,98755.66
2023-11-18T21:29:52.030Z,98751.03
2023-11-18T21:32:23.079Z,98741.16
2023-11-18T21:34:53.980Z,98736.53
2023-11-18T21:37:24.467Z,98746.16
2023-11-18T21:39:54.013Z,98741.81
2023-11-18T21:42:25.542Z,98742.06
2023-11-18T21:44:56.005Z,98749.28
2023-11-18T21:47:26.914Z,98749.16
2023-11-18T21:49:57.081Z,98748.59
2023-11-18T21:52:27.004Z,98749.94
2023-11-18T21:54:57.077Z,98746.16
2023-11-18T21:57:26.695Z,98746.84
2023-11-18T21:59:56.115Z,98743.81
2023-11-18T22:02:25.655Z,98750.47
2023-11-18T22:04:55.142Z,98752.94
2023-11-18T22:07:24.517Z,98740.84
2023-11-18T22:09:53.993Z,98742.06
2023-11-18T22:12:25.120Z,98738.53
2023-11-18T22:14:55.521Z,98743.31
2023-11-18T22:17:26.045Z,98755.09
2023-11-18T22:19:55.522Z,98746.97
2023-11-18T22:22:33.898Z,98742.63
2023-11-18T22:25:04.315Z,98732.59
2023-11-18T22:27:35.210Z,98742.63
2023-11-18T22:30:05.818Z,98742.91
2023-11-18T22:32:39.029Z,98745.91
2023-11-18T22:35:10.147Z,98740.47
2023-11-18T22:37:39.824Z,98735.84
2023-11-18T22:40:10.252Z,98733.28
2023-11-18T22:42:45.843Z,98737.78
2023-11-18T22:45:20.697Z,98752.16
2023-11-18T22:47:55.201Z,98764.59
2023-11-18T22:50:25.257Z,98772.34
2023-11-18T22:52:58.900Z,98753.75
2023-11-18T22:55:30.081Z,98745.88
2023-11-18T22:57:59.498Z,98749.69
2023-11-18T23:00:43.853Z,98741.97
2023-11-18T23:03:13.825Z,98724.47
2023-11-18T23:05:43.881Z,98739.38
2023-11-18T23:08:18.400Z,98744.78
2023-11-18T23:10:52.540Z,98749.94
2023-11-18T23:13:24.026Z,98755.38
2023-11-18T23:15:59.775Z,98762.13
2023-11-18T23:18:31.059Z,98755.63
2023-11-18T23:21:03.695Z,98753.19
2023-11-18T23:23:38.561Z,98732.28
2023-11-18T23:26:09.177Z,98756.56
2023-11-18T23:28:39.447Z,98750.88
2023-11-18T23:31:12.485Z,98738.81
2023-11-18T23:33:46.710Z,98732.84
2023-11-18T23:36:18.868Z,98740.03
2023-11-18T23:38:51.155Z,98735.13
2023-11-18T23:41:32.033Z,98737.56
2023-11-18T23:44:01.584Z,98745.53
2023-11-18T23:46:31.075Z,98745.00
2023-11-18T23:49:00.482Z,98742.69
2023-11-18T23:51:29.998Z,98741.19
2023-11-18T23:54:00.278Z,98728.84
2023-11-18T23:56:29.796Z,98743.09
2023-11-18T23:58:59.242Z,98729.66
